Time;durP1;ratioP1;P1;durP2;ratioP2;P2;SDS_P1;SDS_P2;PMS_P1;PMS_P2;Temp;Humidity;BMP_temperature;BMP_pressure;BME280_temperature;BME280_humidity;BME280_pressure;Samples;Min_cycle;Max_cycle;Signal;HPM_P1;HPM_P2
2021/06/15 00:00:19;;;;;;;6.03;3.70;;;;;;;14.00;40.85;95795.34;5051395;28;20523;-67
2021/06/15 00:02:45;;;;;;;5.10;4.03;;;;;;;14.02;40.60;95798.63;5050045;28;20518;-67
2021/06/15 00:05:10;;;;;;;4.93;4.05;;;;;;;14.04;40.74;95796.59;5049487;28;20068;-67
2021/06/15 00:07:37;;;;;;;6.15;4.03;;;;;;;14.03;40.59;95801.13;5049861;28;20097;-67
2021/06/15 00:10:06;;;;;;;5.28;3.80;;;;;;;14.00;40.97;95801.50;5053388;28;20083;-67
2021/06/15 00:12:32;;;;;;;10.07;4.20;;;;;;;14.01;40.99;95799.66;5055008;28;20104;-67
2021/06/15 00:14:57;;;;;;;6.47;3.95;;;;;;;14.03;40.76;95789.56;5052325;28;20073;-67
2021/06/15 00:17:23;;;;;;;6.85;4.20;;;;;;;14.06;40.87;95802.56;5058941;28;20093;-67
2021/06/15 00:19:48;;;;;;;5.07;3.90;;;;;;;14.05;40.99;95800.94;5059990;28;20093;-67
2021/06/15 00:22:14;;;;;;;6.45;3.97;;;;;;;14.04;40.89;95793.94;5056503;28;20077;-67
2021/06/15 00:24:39;;;;;;;7.50;4.03;;;;;;;14.02;40.57;95791.44;5057205;28;20120;-67
2021/06/15 00:27:05;;;;;;;6.43;3.70;;;;;;;14.04;40.54;95791.25;5051407;28;20097;-67
2021/06/15 00:29:30;;;;;;;8.45;3.67;;;;;;;14.00;40.76;95798.03;5058968;28;20078;-67
2021/06/15 00:31:55;;;;;;;5.38;3.78;;;;;;;13.97;40.56;95796.53;5059128;28;20109;-67
2021/06/15 00:34:21;;;;;;;6.03;3.92;;;;;;;13.98;40.89;95797.38;5060869;28;20073;-68
2021/06/15 00:36:46;;;;;;;5.30;3.63;;;;;;;13.99;40.85;95796.34;5060996;28;20148;-67
2021/06/15 00:39:12;;;;;;;5.85;3.70;;;;;;;14.00;40.98;95798.03;5057217;28;20104;-67
2021/06/15 00:41:37;;;;;;;6.70;3.92;;;;;;;13.97;40.92;95795.72;5058268;28;20121;-67
2021/06/15 00:44:03;;;;;;;5.10;3.55;;;;;;;13.91;40.82;95792.78;5057215;28;20136;-67
2021/06/15 00:46:28;;;;;;;5.38;3.63;;;;;;;13.85;41.22;95790.88;5062213;28;20176;-67
2021/06/15 00:48:54;;;;;;;4.50;3.17;;;;;;;13.76;41.23;95784.84;5066325;28;20096;-67
2021/06/15 00:51:19;;;;;;;5.45;3.35;;;;;;;13.73;41.20;95792.44;5035833;28;20101;-67
2021/06/15 00:53:45;;;;;;;5.32;3.42;;;;;;;13.70;41.35;95794.47;5032467;28;20081;-67
2021/06/15 00:56:10;;;;;;;4.05;3.33;;;;;;;13.70;41.23;95799.81;5054114;28;20105;-67
2021/06/15 00:58:36;;;;;;;6.78;3.67;;;;;;;13.69;41.38;95792.81;5067736;28;20072;-67
2021/06/15 01:01:01;;;;;;;4.88;3.40;;;;;;;13.70;41.22;95794.47;5051187;28;20116;-67
2021/06/15 01:03:27;;;;;;;6.60;3.97;;;;;;;13.73;41.07;95793.25;5061741;28;20570;-67
2021/06/15 01:05:53;;;;;;;5.53;3.25;;;;;;;13.75;41.43;95798.41;5051941;28;20526;-67
2021/06/15 01:08:47;;;;;;;9.00;3.28;;;;;;;13.74;41.28;95804.78;5049336;28;20116;-67
2021/06/15 01:11:37;;;;;;;5.15;3.72;;;;;;;13.68;41.65;95801.03;5057736;28;20115;-67
2021/06/15 01:14:25;;;;;;;4.20;3.17;;;;;;;13.69;40.97;95800.84;5058508;28;20156;-67
2021/06/15 01:16:55;;;;;;;5.55;3.05;;;;;;;13.66;41.09;95795.88;5049988;28;20109;-67
2021/06/15 01:19:59;;;;;;;5.70;3.10;;;;;;;13.56;41.38;95800.72;5049339;28;20179;-67
2021/06/15 01:22:43;;;;;;;6.70;3.70;;;;;;;13.44;42.00;95793.22;5058794;28;20093;-67
2021/06/15 01:25:44;;;;;;;5.93;3.33;;;;;;;13.42;41.86;95805.97;5060964;28;20158;-67
2021/06/15 01:28:24;;;;;;;4.68;2.92;;;;;;;13.39;41.79;95805.50;5039961;28;20511;-67
2021/06/15 01:30:58;;;;;;;3.53;3.08;;;;;;;13.40;41.61;95804.50;5067907;28;20092;-66
2021/06/15 01:33:24;;;;;;;4.35;3.17;;;;;;;13.40;41.76;95804.50;5063011;28;20081;-67
2021/06/15 01:35:50;;;;;;;4.18;2.97;;;;;;;13.39;41.67;95798.31;5055577;28;20124;-67
2021/06/15 01:38:15;;;;;;;4.90;3.00;;;;;;;13.38;41.56;95802.00;5039045;28;20532;-67
2021/06/15 01:40:44;;;;;;;6.10;3.25;;;;;;;13.37;41.69;95799.53;5042618;28;20219;-67
2021/06/15 01:43:15;;;;;;;5.00;3.03;;;;;;;13.30;41.80;95800.28;5055914;28;20123;-67
2021/06/15 01:45:41;;;;;;;4.93;2.90;;;;;;;13.27;42.06;95800.69;5059707;28;20553;-69
2021/06/15 01:48:41;;;;;;;3.35;2.85;;;;;;;13.23;42.36;95798.56;5064459;28;20135;-67
2021/06/15 01:51:07;;;;;;;3.45;2.67;;;;;;;13.25;41.99;95807.22;5060715;28;20081;-67
2021/06/15 01:53:33;;;;;;;4.22;2.88;;;;;;;13.27;41.79;95795.34;5035303;28;20570;-67
2021/06/15 01:56:04;;;;;;;5.18;3.08;;;;;;;13.30;41.64;95800.28;5055724;28;20101;-67
2021/06/15 01:58:30;;;;;;;3.20;2.75;;;;;;;13.35;41.51;95796.19;5058226;28;20571;-67
2021/06/15 02:00:56;;;;;;;4.63;3.08;;;;;;;13.34;41.94;95798.06;5056771;28;20105;-67
2021/06/15 02:03:21;;;;;;;8.10;3.40;;;;;;;13.06;42.16;95796.16;5051255;28;20645;-67
2021/06/15 02:05:49;;;;;;;9.93;3.00;;;;;;;13.19;41.83;95803.47;5052215;28;20073;-67
2021/06/15 02:08:42;;;;;;;8.30;2.85;;;;;;;13.94;40.91;95789.72;5059684;28;20167;-67
2021/06/15 02:11:08;;;;;;;5.32;2.80;;;;;;;14.06;40.44;95792.69;5052603;28;20114;-67
2021/06/15 02:13:38;;;;;;;4.10;3.15;;;;;;;14.04;40.70;95799.28;5054796;28;20085;-67
2021/06/15 02:16:04;;;;;;;3.75;2.67;;;;;;;14.00;40.58;95803.38;5036692;28;20109;-67
2021/06/15 02:18:30;;;;;;;5.68;3.00;;;;;;;13.94;40.86;95796.94;5056558;28;20088;-67
2021/06/15 02:20:56;;;;;;;5.15;2.72;;;;;;;13.88;40.73;95797.69;5049631;28;20101;-67
2021/06/15 02:23:22;;;;;;;3.50;2.90;;;;;;;13.77;40.94;95794.50;5050468;28;20178;-67
2021/06/15 02:25:51;;;;;;;4.60;2.75;;;;;;;13.73;41.18;95795.13;5039223;28;20080;-67
2021/06/15 02:28:17;;;;;;;5.95;3.03;;;;;;;13.73;41.01;95792.44;5051462;28;20113;-67
2021/06/15 02:30:43;;;;;;;4.55;2.70;;;;;;;13.76;40.78;95792.88;5044198;28;20085;-67
2021/06/15 02:33:14;;;;;;;6.28;3.00;;;;;;;13.70;40.99;95794.47;5053940;28;20103;-67
2021/06/15 02:35:43;;;;;;;5.03;2.90;;;;;;;13.63;41.24;95798.13;5061187;28;20184;-67
2021/06/15 02:38:25;;;;;;;3.35;2.92;;;;;;;13.57;41.31;95803.19;5042003;28;20152;-67
2021/06/15 02:40:51;;;;;;;3.80;2.80;;;;;;;13.50;41.69;95801.50;5043496;28;20426;-67
2021/06/15 02:43:16;;;;;;;5.63;3.00;;;;;;;13.44;41.98;95790.53;5059777;28;20501;-67
2021/06/15 02:45:42;;;;;;;5.95;2.90;;;;;;;13.50;41.51;95794.28;5043480;28;20104;-67
2021/06/15 02:48:07;;;;;;;7.03;2.75;;;;;;;13.44;41.59;95795.88;5033322;28;20109;-67
2021/06/15 02:50:35;;;;;;;4.03;2.70;;;;;;;13.44;41.60;95798.56;5037449;28;20077;-67
2021/06/15 02:53:04;;;;;;;5.13;2.95;;;;;;;13.39;41.89;95798.31;5062352;28;20097;-71
2021/06/15 02:55:32;;;;;;;5.72;2.90;;;;;;;13.31;41.99;95798.44;5043838;28;20181;-67
2021/06/15 02:57:58;;;;;;;5.18;2.90;;;;;;;13.25;42.08;95796.53;5061247;28;20127;-67
2021/06/15 03:00:23;;;;;;;6.55;2.70;;;;;;;13.21;42.40;95797.91;5060872;28;20116;-67
2021/06/15 03:02:49;;;;;;;3.40;2.80;;;;;;;13.24;42.33;95793.03;5061958;28;20096;-67
2021/06/15 03:05:16;;;;;;;4.63;2.60;;;;;;;13.22;42.05;95794.25;5069166;28;20483;-67
2021/06/15 03:07:41;;;;;;;8.40;2.90;;;;;;;13.25;41.96;95804.53;5055350;28;20196;-67
2021/06/15 03:10:08;;;;;;;3.92;2.60;;;;;;;13.26;42.01;95795.53;5039804;28;20080;-67
2021/06/15 03:12:53;;;;;;;3.83;2.72;;;;;;;13.24;42.14;95794.88;5059955;28;20101;-67
2021/06/15 03:15:20;;;;;;;3.55;2.50;;;;;;;13.28;42.03;95785.44;5055308;28;20175;-67
2021/06/15 03:18:02;;;;;;;3.27;2.40;;;;;;;13.27;41.98;95797.19;5053863;28;20085;-67
2021/06/15 03:20:27;;;;;;;3.25;2.58;;;;;;;13.36;41.79;95798.69;5043128;28;20101;-67
2021/06/15 03:23:07;;;;;;;2.50;2.28;;;;;;;13.35;41.97;95791.69;5046352;28;20076;-67
2021/06/15 03:25:34;;;;;;;3.67;2.60;;;;;;;13.37;41.95;95792.34;5044879;28;20068;-67
2021/06/15 03:28:01;;;;;;;3.00;2.55;;;;;;;13.43;41.81;95793.44;5055707;28;20120;-67
2021/06/15 03:30:27;;;;;;;5.03;2.50;;;;;;;13.50;41.53;95798.81;5061119;28;20065;-67
2021/06/15 03:32:54;;;;;;;5.57;2.55;;;;;;;13.48;41.81;95795.50;5062232;28;20113;-67
2021/06/15 03:35:21;;;;;;;2.77;2.57;;;;;;;13.46;41.65;95797.56;5042002;28;20101;-67
2021/06/15 03:37:51;;;;;;;3.60;2.30;;;;;;;13.44;41.75;95801.22;5039869;28;20315;-67
2021/06/15 03:40:17;;;;;;;4.22;2.50;;;;;;;13.49;41.44;95798.00;5061167;28;20159;-67
2021/06/15 03:42:42;;;;;;;3.03;2.47;;;;;;;13.55;41.42;95799.06;5057850;28;20101;-67
2021/06/15 03:45:09;;;;;;;4.10;2.28;;;;;;;13.55;41.86;95796.41;5038164;28;20084;-67
2021/06/15 03:47:36;;;;;;;4.65;2.63;;;;;;;13.54;41.48;95806.25;5042769;28;20115;-67
2021/06/15 03:50:01;;;;;;;4.13;2.75;;;;;;;13.60;41.80;95799.31;5039309;28;20085;-67
2021/06/15 03:52:28;;;;;;;3.53;2.55;;;;;;;13.65;41.62;95801.41;5061804;28;20127;-67
2021/06/15 03:54:57;;;;;;;5.95;2.65;;;;;;;13.68;42.00;95801.03;5063143;28;20077;-67
2021/06/15 03:57:23;;;;;;;4.03;2.80;;;;;;;13.73;41.91;95797.78;5043405;28;20083;-67
2021/06/15 03:59:49;;;;;;;3.28;2.42;;;;;;;13.78;41.48;95792.66;5060166;28;20235;-67
2021/06/15 04:02:14;;;;;;;4.55;2.50;;;;;;;13.88;41.25;95811.06;5057143;28;20081;-67
2021/06/15 04:04:41;;;;;;;3.50;2.58;;;;;;;13.97;41.45;95793.84;5050594;28;20106;-68
2021/06/15 04:07:07;;;;;;;2.97;2.33;;;;;;;13.99;41.04;95801.69;5038015;28;20073;-67
2021/06/15 04:09:34;;;;;;;3.92;2.78;;;;;;;14.03;41.14;95802.94;5061462;28;20501;-67
2021/06/15 04:12:00;;;;;;;5.22;2.70;;;;;;;14.08;40.81;95800.53;5055475;28;20105;-67
2021/06/15 04:14:26;;;;;;;3.85;2.50;;;;;;;14.15;40.78;95804.09;5038800;28;20066;-67
2021/06/15 04:16:51;;;;;;;4.63;2.67;;;;;;;14.23;40.89;95805.78;5064247;28;20109;-67
2021/06/15 04:19:23;;;;;;;4.55;2.35;;;;;;;14.27;41.30;95808.88;5043240;28;20488;-67
2021/06/15 04:21:48;;;;;;;4.70;2.70;;;;;;;14.36;40.58;95807.69;5042000;28;20077;-67
2021/06/15 04:24:18;;;;;;;5.72;2.63;;;;;;;14.43;40.84;95805.91;5035328;28;20117;-67
2021/06/15 04:26:44;;;;;;;5.22;2.60;;;;;;;14.55;40.42;95810.69;5054847;28;20101;-67
2021/06/15 04:29:14;;;;;;;3.53;2.50;;;;;;;14.67;40.50;95809.09;5055776;28;20124;-67
2021/06/15 04:31:40;;;;;;;3.42;2.40;;;;;;;14.79;40.47;95808.56;5055706;28;20146;-67
2021/06/15 04:34:06;;;;;;;3.80;2.45;;;;;;;14.91;39.89;95800.75;5036869;28;20070;-67
2021/06/15 04:36:31;;;;;;;5.57;2.40;;;;;;;15.02;40.02;95808.19;5056888;28;21020;-67
2021/06/15 04:39:02;;;;;;;6.05;2.50;;;;;;;15.19;40.37;95813.19;5056134;28;20077;-67
2021/06/15 04:41:57;;;;;;;4.15;2.50;;;;;;;15.32;40.19;95820.44;5055289;28;20609;-70
2021/06/15 04:44:31;;;;;;;4.53;2.80;;;;;;;15.31;40.03;95821.47;5056574;28;20199;-67
2021/06/15 04:47:06;;;;;;;4.97;2.80;;;;;;;15.38;39.56;95819.63;5045998;28;20077;-67
2021/06/15 04:49:41;;;;;;;4.95;3.00;;;;;;;15.27;39.22;95818.38;5059844;28;20825;-67
2021/06/15 04:52:06;;;;;;;6.13;3.30;;;;;;;15.43;40.74;95827.91;5029681;28;20105;-67
2021/06/15 04:54:36;;;;;;;6.20;3.20;;;;;;;15.72;40.46;95825.91;5039087;28;20407;-67
2021/06/15 04:57:03;;;;;;;6.28;2.80;;;;;;;16.19;39.18;95824.22;5055750;28;20509;-66
2021/06/15 04:59:29;;;;;;;5.85;2.75;;;;;;;16.33;38.98;95828.53;5037118;28;20104;-67
2021/06/15 05:01:54;;;;;;;8.52;3.50;;;;;;;16.57;38.23;95828.09;5050965;28;20085;-67
2021/06/15 05:04:20;;;;;;;6.10;3.35;;;;;;;16.76;38.47;95823.69;5038156;28;20346;-67
2021/06/15 05:06:45;;;;;;;5.82;2.88;;;;;;;16.89;37.44;95829.00;5060580;28;20085;-67
2021/06/15 05:09:11;;;;;;;7.72;2.80;;;;;;;17.10;37.57;95829.72;5039607;28;20103;-67
2021/06/15 05:11:37;;;;;;;4.28;2.55;;;;;;;17.27;37.69;95822.03;5044445;28;20154;-67
2021/06/15 05:14:04;;;;;;;6.20;3.20;;;;;;;17.40;37.58;95825.66;5057627;28;20081;-67
2021/06/15 05:16:33;;;;;;;6.10;2.75;;;;;;;17.63;37.57;95829.66;5056285;28;20128;-67
2021/06/15 05:18:59;;;;;;;4.63;2.67;;;;;;;17.77;36.77;95827.69;5057516;28;20475;-67
2021/06/15 05:21:28;;;;;;;5.20;2.80;;;;;;;17.89;37.06;95836.75;5055529;28;20092;-67
2021/06/15 05:24:04;;;;;;;2.70;2.42;;;;;;;18.03;37.89;95836.63;5061803;28;20642;-67
2021/06/15 05:26:30;;;;;;;4.38;2.80;;;;;;;18.31;37.70;95836.16;5042313;28;20076;-66
2021/06/15 05:28:55;;;;;;;6.78;3.33;;;;;;;18.58;36.58;95839.66;5059330;28;20101;-66
2021/06/15 05:31:20;;;;;;;4.05;2.90;;;;;;;18.78;36.83;95842.13;5064095;28;20105;-67
2021/06/15 05:33:46;;;;;;;9.20;3.70;;;;;;;18.74;36.28;95851.72;5062261;28;20122;-67
2021/06/15 05:36:11;;;;;;;5.40;2.92;;;;;;;18.56;34.93;95851.47;5056947;28;20105;-67
2021/06/15 05:38:37;;;;;;;4.88;3.13;;;;;;;18.76;35.56;95855.84;5061239;28;20084;-67
2021/06/15 05:41:02;;;;;;;5.63;2.88;;;;;;;19.04;35.57;95850.97;5057750;28;20128;-67
2021/06/15 05:43:28;;;;;;;7.40;3.08;;;;;;;19.22;35.87;95850.09;5056031;28;20796;-67
2021/06/15 05:45:53;;;;;;;3.75;2.72;;;;;;;19.38;35.09;95854.06;5052712;28;20089;-67
2021/06/15 05:48:19;;;;;;;5.07;3.25;;;;;;;19.28;35.19;95854.59;5052137;28;20106;-67
2021/06/15 05:50:44;;;;;;;6.75;3.10;;;;;;;19.25;33.57;95855.06;5063930;28;20109;-67
2021/06/15 05:53:10;;;;;;;5.53;3.15;;;;;;;19.56;33.96;95861.28;5053191;28;20128;-66
2021/06/15 05:55:35;;;;;;;7.50;4.05;;;;;;;19.82;32.68;95861.94;5050075;28;20111;-67
2021/06/15 05:58:01;;;;;;;7.63;4.10;;;;;;;20.06;32.92;95856.59;5057292;28;20073;-67
2021/06/15 06:00:26;;;;;;;7.22;3.67;;;;;;;20.38;33.47;95865.44;5057700;28;20149;-66
2021/06/15 06:02:52;;;;;;;10.32;3.72;;;;;;;20.35;34.73;95864.84;5055363;28;20158;-67
2021/06/15 06:10:27;;;;;;;6.65;3.83;;;;;;;20.31;33.28;95870.94;5056495;28;20218;-66
2021/06/15 06:12:53;;;;;;;7.65;3.97;;;;;;;20.52;32.80;95866.84;5055330;28;20463;-66
2021/06/15 06:15:18;;;;;;;8.63;4.50;;;;;;;20.91;31.82;95866.34;5051240;28;20527;-66
2021/06/15 06:17:44;;;;;;;7.20;4.57;;;;;;;21.00;31.61;95866.78;5051361;28;20510;-66
2021/06/15 06:20:11;;;;;;;8.18;4.22;;;;;;;21.19;31.60;95858.50;5059186;28;20104;-66
2021/06/15 06:22:37;;;;;;;6.90;5.32;;;;;;;20.97;31.52;95861.88;5053187;28;20549;-66
2021/06/15 06:25:03;;;;;;;9.37;4.43;;;;;;;21.31;31.59;95864.72;5055595;28;20100;-67
2021/06/15 06:27:29;;;;;;;8.63;4.60;;;;;;;21.45;31.55;95869.84;5054062;28;20108;-67
2021/06/15 06:29:54;;;;;;;8.52;4.20;;;;;;;21.54;31.02;95870.28;5057736;28;20089;-66
2021/06/15 06:32:20;;;;;;;6.87;3.80;;;;;;;21.55;31.98;95875.44;5062410;28;20097;-66
2021/06/15 06:34:45;;;;;;;9.07;3.53;;;;;;;22.06;31.00;95882.84;5055657;28;20109;-66
2021/06/15 06:37:11;;;;;;;8.00;3.87;;;;;;;22.41;29.36;95884.47;5058048;28;20541;-66
2021/06/15 06:39:38;;;;;;;5.37;3.20;;;;;;;22.52;30.55;95887.34;5063611;28;20570;-66
2021/06/15 06:42:04;;;;;;;9.20;4.53;;;;;;;22.84;29.98;95886.75;5056044;28;20147;-66
2021/06/15 06:44:29;;;;;;;8.10;3.97;;;;;;;22.59;28.94;95882.63;5046146;28;20570;-67
2021/06/15 06:46:55;;;;;;;9.33;4.27;;;;;;;22.92;29.33;95880.06;5058923;28;20473;-66
2021/06/15 06:49:20;;;;;;;8.23;4.40;;;;;;;23.09;29.20;95887.31;5048193;28;20647;-66
2021/06/15 06:51:45;;;;;;;7.33;3.13;;;;;;;23.24;28.80;95887.53;5050116;28;20474;-66
2021/06/15 06:54:11;;;;;;;6.47;3.50;;;;;;;23.46;29.32;95885.88;5052325;28;20579;-66
2021/06/15 06:56:36;;;;;;;8.27;4.80;;;;;;;23.38;28.56;95882.53;5050421;28;20582;-67
2021/06/15 06:59:02;;;;;;;10.07;3.13;;;;;;;23.51;28.26;95880.50;5048313;28;20816;-67
2021/06/15 07:01:28;;;;;;;9.73;4.60;;;;;;;23.80;28.29;95869.41;5057163;28;20072;-66
2021/06/15 07:03:53;;;;;;;6.90;3.60;;;;;;;24.02;28.10;95871.22;5054149;28;20331;-67
2021/06/15 07:06:19;;;;;;;8.87;3.53;;;;;;;24.34;28.08;95875.88;5057448;28;20081;-66
2021/06/15 07:08:44;;;;;;;7.83;3.50;;;;;;;24.64;27.33;95879.03;5053538;28;20109;-66
2021/06/15 07:11:10;;;;;;;6.93;4.47;;;;;;;24.76;26.84;95884.25;5048492;28;20566;-66
2021/06/15 07:13:35;;;;;;;7.70;3.97;;;;;;;24.29;26.26;95873.88;5053477;28;20088;-67
2021/06/15 07:16:01;;;;;;;7.70;4.23;;;;;;;24.20;26.70;95870.81;5048145;28;20101;-66
2021/06/15 07:18:26;;;;;;;6.70;3.90;;;;;;;24.56;27.13;95878.44;5053642;28;20084;-66
2021/06/15 07:20:52;;;;;;;7.97;4.43;;;;;;;24.72;27.66;95878.53;5062439;28;20107;-67
2021/06/15 07:23:17;;;;;;;16.73;4.73;;;;;;;24.71;27.58;95880.44;5058417;28;20128;-66
2021/06/15 07:25:43;;;;;;;10.57;5.00;;;;;;;24.29;27.16;95873.88;5062335;28;20075;-67
2021/06/15 07:28:08;;;;;;;8.27;4.03;;;;;;;24.47;27.80;95879.22;5056982;28;20096;-66
2021/06/15 07:30:34;;;;;;;9.83;4.00;;;;;;;24.42;27.79;95877.25;5052134;28;20085;-67
2021/06/15 07:32:59;;;;;;;10.43;3.30;;;;;;;24.57;27.30;95871.91;5052134;28;20090;-66
2021/06/15 07:35:25;;;;;;;5.60;3.20;;;;;;;24.93;28.20;95876.78;5050151;28;20109;-66
2021/06/15 07:37:51;;;;;;;9.37;3.70;;;;;;;25.04;28.69;95877.63;5054401;28;20073;-66
2021/06/15 07:40:22;;;;;;;7.70;3.60;;;;;;;24.68;26.72;95882.88;5052409;28;20123;-66
2021/06/15 07:42:49;;;;;;;6.82;3.50;;;;;;;24.71;28.23;95880.44;5052690;28;20170;-66
2021/06/15 07:45:14;;;;;;;7.95;3.70;;;;;;;24.40;26.44;95884.88;5052603;28;20088;-66
2021/06/15 07:47:40;;;;;;;11.63;3.90;;;;;;;24.16;27.70;95888.75;5053666;28;20133;-66
2021/06/15 07:50:05;;;;;;;7.77;3.80;;;;;;;23.93;27.80;95882.56;5055270;28;20489;-66
2021/06/15 07:52:31;;;;;;;8.63;3.65;;;;;;;23.76;28.10;95881.88;5052881;28;20132;-66
2021/06/15 07:54:56;;;;;;;7.43;3.40;;;;;;;23.72;28.64;95889.69;5058773;28;20112;-67
2021/06/15 07:57:22;;;;;;;8.20;3.58;;;;;;;23.67;27.89;95885.03;5050692;28;20519;-66
2021/06/15 07:59:47;;;;;;;10.43;4.07;;;;;;;23.50;30.07;95896.00;5052811;28;20187;-66
2021/06/15 08:02:13;;;;;;;9.53;3.90;;;;;;;23.55;29.02;95903.34;5054477;28;20631;-66
2021/06/15 08:04:38;;;;;;;8.80;4.35;;;;;;;23.04;28.79;95904.38;5049463;28;20477;-66
2021/06/15 08:07:04;;;;;;;11.55;3.80;;;;;;;23.05;29.11;95895.16;5053580;28;20107;-66
2021/06/15 08:09:29;;;;;;;10.43;4.15;;;;;;;23.07;30.45;95901.16;5052203;28;20084;-66
2021/06/15 08:11:55;;;;;;;8.75;4.30;;;;;;;23.14;29.91;95893.66;5050175;28;20107;-66
2021/06/15 08:14:20;;;;;;;8.55;4.13;;;;;;;23.27;29.58;95892.47;5052508;28;20069;-66
2021/06/15 08:16:45;;;;;;;11.45;4.10;;;;;;;23.09;29.55;95893.59;5050641;28;20235;-66
2021/06/15 08:19:11;;;;;;;9.05;4.03;;;;;;;23.16;28.31;95886.09;5055551;28;20096;-66
2021/06/15 08:21:36;;;;;;;8.70;4.28;;;;;;;23.03;30.23;95887.28;5062004;28;20108;-66
2021/06/15 08:24:02;;;;;;;8.00;4.00;;;;;;;23.48;30.49;95886.47;5061769;28;20124;-66
2021/06/15 08:26:27;;;;;;;11.52;3.90;;;;;;;23.76;30.79;95885.41;5055622;28;20104;-66
2021/06/15 08:28:53;;;;;;;11.65;3.72;;;;;;;23.68;28.95;95889.38;5049034;28;20097;-67
2021/06/15 08:31:18;;;;;;;6.47;4.07;;;;;;;24.01;29.80;95889.44;5055266;28;20105;-66
2021/06/15 08:33:44;;;;;;;8.40;4.37;;;;;;;24.14;28.14;95884.66;5050994;28;20074;-66
2021/06/15 08:36:09;;;;;;;12.50;4.43;;;;;;;24.13;28.05;95886.53;5058682;28;20105;-66
2021/06/15 08:38:34;;;;;;;8.10;4.03;;;;;;;24.37;27.23;95888.13;5058970;28;20155;-66
2021/06/15 08:41:00;;;;;;;11.83;4.30;;;;;;;24.68;26.80;95886.41;5054433;28;20125;-66
2021/06/15 08:43:25;;;;;;;10.73;4.37;;;;;;;24.68;28.05;95880.97;5054685;28;20112;-67
2021/06/15 08:45:51;;;;;;;9.07;4.00;;;;;;;24.79;28.11;95878.31;5046671;28;20134;-66
2021/06/15 08:48:16;;;;;;;8.67;4.60;;;;;;;24.94;27.30;95883.84;5052739;28;20109;-66
2021/06/15 08:50:44;;;;;;;8.77;4.73;;;;;;;24.51;28.84;95877.59;5048011;28;20116;-66
2021/06/15 08:53:10;;;;;;;9.52;4.38;;;;;;;24.67;27.94;95883.94;5054226;28;20128;-66
2021/06/15 08:55:36;;;;;;;10.57;4.47;;;;;;;24.69;27.95;95888.06;5048039;28;20113;-66
2021/06/15 08:58:07;;;;;;;11.20;4.18;;;;;;;24.63;28.96;95885.53;5060886;28;20077;-67
2021/06/15 09:00:32;;;;;;;6.85;4.10;;;;;;;24.79;28.53;95886.47;5056186;28;20647;-66
2021/06/15 09:02:58;;;;;;;9.07;3.90;;;;;;;24.62;28.54;95887.47;5055451;28;20112;-66
2021/06/15 09:05:23;;;;;;;6.43;3.70;;;;;;;24.82;28.80;95888.66;5055663;28;20085;-67
2021/06/15 09:07:58;;;;;;;10.27;4.00;;;;;;;25.05;30.17;95884.72;5058225;28;20109;-66
2021/06/15 09:10:32;;;;;;;9.25;4.40;;;;;;;25.18;28.54;95888.03;5053573;28;20077;-66
2021/06/15 09:12:58;;;;;;;7.43;4.00;;;;;;;25.14;28.10;95881.47;5062605;28;20141;-66
2021/06/15 09:15:23;;;;;;;7.93;4.43;;;;;;;24.01;28.24;95886.72;5052155;28;20108;-65
2021/06/15 09:17:49;;;;;;;11.00;4.60;;;;;;;23.99;30.03;95896.22;5054434;28;20084;-66
2021/06/15 09:20:27;;;;;;;8.20;4.20;;;;;;;23.64;30.20;95887.41;5053743;28;20663;-66
2021/06/15 09:23:03;;;;;;;9.57;4.68;;;;;;;23.66;29.70;95888.00;5052129;28;20108;-66
2021/06/15 09:25:29;;;;;;;10.48;4.90;;;;;;;23.33;27.88;95889.81;5048669;28;20085;-66
2021/06/15 09:27:55;;;;;;;9.63;5.00;;;;;;;22.98;30.21;95895.34;5056661;28;20158;-66
2021/06/15 09:30:22;;;;;;;11.00;5.18;;;;;;;22.89;28.79;95891.41;5047353;28;20085;-66
2021/06/15 09:32:48;;;;;;;7.55;4.53;;;;;;;23.53;29.51;95902.81;5047654;28;20101;-66
2021/06/15 09:35:14;;;;;;;8.70;4.57;;;;;;;22.80;30.01;95893.75;5054346;28;20097;-66
2021/06/15 09:37:47;;;;;;;8.63;4.88;;;;;;;22.77;30.76;95894.22;5058126;28;20077;-66
2021/06/15 09:40:33;;;;;;;11.43;4.78;;;;;;;22.58;30.74;95893.72;5036483;28;20116;-66
2021/06/15 09:43:02;;;;;;;9.60;4.80;;;;;;;23.00;28.02;95898.63;5047603;28;20109;-66
2021/06/15 09:45:31;;;;;;;11.60;4.40;;;;;;;23.44;30.15;95902.44;5049299;28;20099;-66
2021/06/15 09:48:19;;;;;;;13.40;4.80;;;;;;;23.27;28.04;95894.34;5044533;28;20115;-66
2021/06/15 09:50:44;;;;;;;11.50;4.53;;;;;;;24.07;26.90;95887.59;5046968;28;20101;-66
2021/06/15 09:53:24;;;;;;;11.43;4.65;;;;;;;23.71;28.27;95890.75;5062677;28;20486;-66
2021/06/15 09:55:49;;;;;;;11.73;4.72;;;;;;;23.19;28.82;95889.38;5049276;28;20135;-65
2021/06/15 09:58:16;;;;;;;15.27;4.88;;;;;;;22.38;31.47;95889.59;5045646;28;20227;-65
2021/06/15 10:00:42;;;;;;;12.88;5.13;;;;;;;22.90;29.75;95893.88;5062555;28;20115;-66
2021/06/15 10:03:08;;;;;;;8.48;4.57;;;;;;;22.95;31.63;95897.75;5051624;28;20100;-66
2021/06/15 10:05:37;;;;;;;8.63;4.70;;;;;;;23.44;28.42;95902.44;5039063;28;20089;-66
2021/06/15 10:08:11;;;;;;;9.27;4.45;;;;;;;23.41;28.43;95905.66;5056296;28;20105;-66
2021/06/15 10:10:38;;;;;;;10.32;4.38;;;;;;;23.89;31.72;95902.38;5056555;28;20090;-65
2021/06/15 10:13:03;;;;;;;10.85;4.20;;;;;;;24.01;30.34;95913.06;5053313;28;20483;-66
2021/06/15 10:15:29;;;;;;;9.57;4.43;;;;;;;22.70;29.99;95918.03;5054970;28;20109;-66
2021/06/15 10:17:55;;;;;;;12.43;5.30;;;;;;;23.48;28.47;95908.19;5055308;28;20143;-65
2021/06/15 10:20:32;;;;;;;11.20;4.57;;;;;;;23.14;30.55;95909.97;5054486;28;20113;-66
2021/06/15 10:22:57;;;;;;;11.52;5.40;;;;;;;23.41;30.69;95908.38;5054259;28;20131;-66
2021/06/15 10:25:24;;;;;;;8.85;4.63;;;;;;;23.39;29.82;95910.53;5064931;28;20586;-66
2021/06/15 10:27:50;;;;;;;11.05;5.40;;;;;;;23.61;32.42;95917.81;5064327;28;20143;-66
2021/06/15 10:30:17;;;;;;;12.47;5.60;;;;;;;23.43;29.94;95912.47;5035905;28;20092;-66
2021/06/15 10:32:59;;;;;;;12.13;5.45;;;;;;;23.38;31.80;95904.25;5035408;28;20200;-66
2021/06/15 10:35:51;;;;;;;11.13;5.32;;;;;;;23.73;30.26;95898.66;5050783;28;20189;-66
2021/06/15 10:38:19;;;;;;;9.82;4.40;;;;;;;23.98;30.55;95900.81;5051455;28;20124;-66
2021/06/15 10:40:48;;;;;;;6.95;4.93;;;;;;;24.26;31.31;95898.88;5050223;28;20827;-66
2021/06/15 10:43:20;;;;;;;8.43;5.25;;;;;;;23.65;30.21;95895.31;5055216;28;20562;-73
2021/06/15 10:45:54;;;;;;;11.35;4.88;;;;;;;24.05;29.06;95896.00;5058770;28;20164;-66
2021/06/15 10:48:20;;;;;;;10.48;4.97;;;;;;;24.65;27.07;95899.72;5061836;28;20568;-66
2021/06/15 10:50:49;;;;;;;9.27;4.78;;;;;;;25.31;27.25;95900.34;5049964;28;21015;-66
2021/06/15 10:53:16;;;;;;;13.07;4.93;;;;;;;25.59;26.39;95901.00;5051707;28;20077;-66
2021/06/15 10:55:45;;;;;;;10.88;4.95;;;;;;;25.43;28.89;95894.66;5055369;28;20139;-65
2021/06/15 10:58:12;;;;;;;11.55;4.93;;;;;;;25.93;28.66;95886.88;5053359;28;20085;-66
2021/06/15 11:00:44;;;;;;;6.90;4.78;;;;;;;25.96;27.52;95894.53;5055721;28;20113;-66
2021/06/15 11:03:15;;;;;;;10.45;4.90;;;;;;;25.98;24.59;95889.63;5054193;28;20104;-66
2021/06/15 11:05:59;;;;;;;9.68;4.53;;;;;;;26.50;26.66;95884.16;5052746;28;20194;-66
2021/06/15 11:08:31;;;;;;;10.52;4.97;;;;;;;27.40;23.61;95885.56;5051334;28;20271;-66
2021/06/15 11:11:02;;;;;;;11.02;4.53;;;;;;;27.17;23.46;95876.09;5052759;28;20105;-66
2021/06/15 11:13:48;;;;;;;9.90;4.45;;;;;;;27.98;24.68;95881.41;5054535;28;20725;-66
2021/06/15 11:16:36;;;;;;;12.68;4.95;;;;;;;28.03;26.04;95877.81;5056304;28;20105;-65
2021/06/15 11:21:51;;;;;;;8.55;4.60;;;;;;;28.10;23.67;95870.09;5054944;28;20099;-65
2021/06/15 11:24:24;;;;;;;7.75;4.20;;;;;;;28.17;23.03;95874.47;5045725;28;20105;-65
2021/06/15 11:27:00;;;;;;;8.98;4.15;;;;;;;28.30;23.22;95873.78;5046158;28;20113;-66
2021/06/15 11:29:38;;;;;;;8.23;4.55;;;;;;;28.32;22.77;95873.50;5047680;28;20557;-66
2021/06/15 11:32:12;;;;;;;13.15;4.50;;;;;;;28.68;22.62;95870.44;5050749;28;20109;-69
2021/06/15 11:34:37;;;;;;;8.15;4.10;;;;;;;28.93;23.92;95868.53;5050641;28;20069;-65
2021/06/15 11:37:18;;;;;;;9.37;4.33;;;;;;;28.40;24.97;95868.22;5053158;28;20430;-65
2021/06/15 11:39:43;;;;;;;8.25;3.97;;;;;;;27.86;24.10;95870.00;5029609;28;20140;-65
2021/06/15 11:42:21;;;;;;;8.23;4.27;;;;;;;27.87;23.94;95866.97;5060884;28;20112;-64
2021/06/15 11:44:52;;;;;;;8.38;4.65;;;;;;;26.94;23.42;95865.53;5053412;28;20117;-64